createdAt,value
2017-09-11T00:00:14.866Z,3.80
2017-09-11T00:02:42.339Z,3.60
2017-09-11T00:05:10.535Z,3.10
2017-09-11T00:07:38.028Z,2.67
2017-09-11T00:10:05.500Z,2.78
2017-09-11T00:12:33.047Z,2.92
2017-09-11T00:15:00.514Z,2.58
2017-09-11T00:17:28.082Z,2.22
2017-09-11T00:19:55.623Z,2.53
2017-09-11T00:22:23.081Z,2.62
2017-09-11T00:24:50.523Z,2.53
2017-09-11T00:27:18.003Z,2.70
2017-09-11T00:29:45.463Z,2.70
2017-09-11T00:32:12.902Z,2.72
2017-09-11T00:34:40.343Z,3.00
2017-09-11T00:37:07.783Z,3.00
2017-09-11T00:39:35.230Z,3.03
2017-09-11T00:42:02.658Z,3.20
2017-09-11T00:44:30.175Z,2.80
2017-09-11T00:46:57.627Z,2.90
2017-09-11T00:49:25.190Z,3.10
2017-09-11T00:51:52.632Z,2.95
2017-09-11T00:54:20.076Z,2.60
2017-09-11T00:56:47.512Z,3.13
2017-09-11T00:59:15.757Z,2.97
2017-09-11T01:01:43.214Z,2.90
2017-09-11T01:04:10.755Z,2.95
2017-09-11T01:06:38.314Z,3.10
2017-09-11T01:09:05.779Z,3.05
2017-09-11T01:11:33.210Z,3.00
2017-09-11T01:14:00.641Z,3.10
2017-09-11T01:16:28.110Z,3.30
2017-09-11T01:18:55.542Z,3.20
2017-09-11T01:21:23.002Z,2.80
2017-09-11T01:23:51.592Z,3.00
2017-09-11T01:26:19.019Z,3.33
2017-09-11T01:28:47.225Z,3.22
2017-09-11T01:31:14.710Z,3.07
2017-09-11T01:33:42.164Z,3.20
2017-09-11T01:36:09.661Z,3.15
2017-09-11T01:38:37.102Z,3.40
2017-09-11T01:41:04.554Z,3.25
2017-09-11T01:43:31.996Z,3.20
2017-09-11T01:45:59.486Z,3.50
2017-09-11T01:48:27.012Z,3.30
2017-09-11T01:50:54.448Z,3.72
2017-09-11T01:53:21.879Z,4.00
2017-09-11T01:55:49.322Z,3.17
2017-09-11T01:58:17.523Z,3.50
2017-09-11T02:00:45.130Z,3.20
2017-09-11T02:03:12.565Z,2.97
2017-09-11T02:05:40.024Z,2.97
2017-09-11T02:08:07.494Z,3.67
2017-09-11T02:10:34.959Z,3.20
2017-09-11T02:13:02.414Z,3.40
2017-09-11T02:15:29.872Z,3.47
2017-09-11T02:17:57.407Z,3.20
2017-09-11T02:20:24.844Z,3.30
2017-09-11T02:22:52.278Z,3.60
2017-09-11T02:25:19.721Z,3.67
2017-09-11T02:27:48.052Z,3.50
2017-09-11T02:30:15.528Z,3.17
2017-09-11T02:32:42.973Z,3.10
2017-09-11T02:35:10.472Z,3.40
2017-09-11T02:37:38.655Z,3.05
2017-09-11T02:40:06.095Z,3.15
2017-09-11T02:42:33.599Z,3.12
2017-09-11T02:45:01.056Z,3.40
2017-09-11T02:47:28.551Z,3.40
2017-09-11T02:49:56.074Z,2.83
2017-09-11T02:52:23.529Z,3.40
2017-09-11T02:54:50.974Z,3.22
2017-09-11T02:57:18.399Z,2.80
2017-09-11T02:59:45.885Z,3.30
2017-09-11T03:02:13.367Z,3.20
2017-09-11T03:04:40.806Z,3.00
2017-09-11T03:07:08.242Z,2.85
2017-09-11T03:09:35.731Z,3.30
2017-09-11T03:12:03.179Z,2.80
2017-09-11T03:14:30.658Z,3.20
2017-09-11T03:16:58.094Z,2.92
2017-09-11T03:19:25.546Z,3.10
2017-09-11T03:21:52.975Z,3.17
2017-09-11T03:24:20.471Z,3.10
2017-09-11T03:26:47.898Z,2.55
2017-09-11T03:29:15.396Z,3.42
2017-09-11T03:31:42.826Z,3.12
2017-09-11T03:34:10.251Z,3.40
2017-09-11T03:36:37.693Z,2.92
2017-09-11T03:39:05.883Z,2.75
2017-09-11T03:41:33.380Z,3.22
2017-09-11T03:44:00.829Z,3.10
2017-09-11T03:46:28.266Z,2.90
2017-09-11T03:48:55.690Z,2.72
2017-09-11T03:51:23.920Z,2.67
2017-09-11T03:53:51.931Z,2.87
2017-09-11T03:56:20.136Z,2.80
2017-09-11T03:58:47.627Z,2.70
2017-09-11T04:01:15.060Z,2.75
2017-09-11T04:03:42.495Z,4.55
2017-09-11T04:06:09.923Z,2.80
2017-09-11T04:08:38.123Z,2.50
2017-09-11T04:11:05.555Z,2.70
2017-09-11T04:13:33.782Z,2.30
2017-09-11T04:16:01.251Z,2.80
2017-09-11T04:18:28.707Z,2.35
2017-09-11T04:20:56.164Z,2.50
2017-09-11T04:23:23.599Z,2.60
2017-09-11T04:25:51.057Z,2.70
2017-09-11T04:28:18.710Z,2.60
2017-09-11T04:30:46.134Z,2.53
2017-09-11T04:33:14.322Z,2.90
2017-09-11T04:35:41.818Z,2.40
2017-09-11T04:38:09.283Z,2.70
2017-09-11T04:40:36.734Z,3.08
2017-09-11T04:43:04.154Z,3.23
2017-09-11T04:45:31.666Z,3.30
2017-09-11T04:47:59.115Z,2.75
2017-09-11T04:50:26.765Z,3.30
2017-09-11T04:52:54.223Z,3.40
2017-09-11T04:55:21.642Z,3.30
2017-09-11T04:57:49.093Z,3.28
2017-09-11T05:00:16.547Z,3.60
2017-09-11T05:02:44.061Z,3.58
2017-09-11T05:05:11.609Z,3.60
2017-09-11T05:07:39.057Z,3.67
2017-09-11T05:10:06.490Z,3.78
2017-09-11T05:12:33.998Z,3.50
2017-09-11T05:15:01.527Z,3.50
2017-09-11T05:17:29.002Z,3.85
2017-09-11T05:19:56.526Z,3.47
2017-09-11T05:22:23.984Z,3.30
2017-09-11T05:24:51.403Z,3.03
2017-09-11T05:27:19.606Z,3.12
2017-09-11T05:29:47.047Z,3.45
2017-09-11T05:32:14.576Z,2.92
2017-09-11T05:34:42.034Z,3.03
2017-09-11T05:37:09.496Z,2.90
2017-09-11T05:39:36.915Z,3.17
2017-09-11T05:42:04.371Z,3.20
2017-09-11T05:44:31.870Z,3.78
2017-09-11T05:47:00.283Z,3.20
2017-09-11T05:49:27.716Z,3.00
2017-09-11T05:51:55.143Z,3.10
2017-09-11T05:54:23.346Z,2.67
2017-09-11T05:56:50.774Z,2.72
2017-09-11T05:59:18.974Z,3.00
2017-09-11T06:01:46.663Z,3.05
2017-09-11T06:04:14.223Z,3.30
2017-09-11T06:06:41.717Z,2.80
2017-09-11T06:09:09.188Z,3.40
2017-09-11T06:11:37.392Z,3.00
2017-09-11T06:14:04.876Z,2.80
2017-09-11T06:16:32.398Z,2.83
2017-09-11T06:19:00.591Z,2.75
2017-09-11T06:21:28.035Z,2.60
2017-09-11T06:23:55.470Z,2.50
2017-09-11T06:26:23.713Z,2.60
2017-09-11T06:28:51.168Z,3.20
2017-09-11T06:31:18.598Z,3.50
2017-09-11T06:33:46.071Z,2.50
2017-09-11T06:36:13.563Z,2.72
2017-09-11T06:38:41.019Z,2.70
2017-09-11T06:41:08.448Z,2.80
2017-09-11T06:43:35.981Z,2.60
2017-09-11T06:46:03.432Z,3.00
2017-09-11T06:48:30.893Z,3.40
2017-09-11T06:50:58.333Z,3.45
2017-09-11T06:53:25.851Z,2.90
2017-09-11T06:55:53.301Z,4.00
2017-09-11T06:58:20.733Z,2.90
2017-09-11T07:00:48.178Z,2.60
2017-09-11T07:03:15.655Z,3.00
2017-09-11T07:05:43.112Z,2.90
2017-09-11T07:08:10.576Z,2.60
2017-09-11T07:10:38.027Z,2.60
2017-09-11T07:13:17.537Z,3.20
2017-09-11T07:15:44.973Z,2.80
2017-09-11T07:18:12.398Z,3.17
2017-09-11T07:20:40.639Z,3.20
2017-09-11T07:23:08.080Z,3.00
2017-09-11T07:25:35.552Z,2.60
2017-09-11T07:28:03.017Z,2.60
2017-09-11T07:30:30.514Z,2.62
2017-09-11T07:32:58.834Z,2.28
2017-09-11T07:35:26.287Z,2.35
2017-09-11T07:37:53.790Z,3.40
2017-09-11T07:40:21.329Z,2.60
2017-09-11T07:42:48.757Z,2.33
2017-09-11T07:45:16.230Z,2.50
2017-09-11T07:47:43.676Z,2.60
2017-09-11T07:50:11.112Z,2.70
2017-09-11T07:52:38.615Z,2.83
2017-09-11T07:55:06.079Z,2.92
2017-09-11T07:57:34.295Z,2.60
2017-09-11T08:00:01.733Z,2.97
2017-09-11T08:02:29.311Z,2.72
2017-09-11T08:04:56.791Z,2.90
2017-09-11T08:07:24.263Z,2.70
2017-09-11T08:09:52.463Z,2.50
2017-09-11T08:12:20.674Z,2.50
2017-09-11T08:14:48.170Z,2.40
2017-09-11T08:17:15.659Z,2.45
2017-09-11T08:19:43.856Z,2.58
2017-09-11T08:22:11.297Z,2.85
2017-09-11T08:24:38.772Z,2.70
2017-09-11T08:27:06.208Z,2.65
2017-09-11T08:29:33.784Z,3.40
2017-09-11T08:32:01.245Z,3.00
2017-09-11T08:34:28.726Z,3.45
2017-09-11T08:36:56.183Z,2.20
2017-09-11T08:39:23.630Z,2.40
2017-09-11T08:41:51.074Z,2.50
2017-09-11T08:44:18.558Z,2.20
2017-09-11T08:46:46.123Z,2.67
2017-09-11T08:49:13.713Z,2.40
2017-09-11T08:51:41.951Z,2.47
2017-09-11T08:54:09.371Z,2.60
2017-09-11T08:56:36.834Z,2.60
2017-09-11T08:59:04.294Z,3.00
2017-09-11T09:01:31.777Z,2.70
2017-09-11T09:04:00.068Z,3.05
2017-09-11T09:06:28.323Z,2.90
2017-09-11T09:08:55.860Z,2.90
2017-09-11T09:11:23.306Z,2.90
2017-09-11T09:13:50.839Z,3.50
2017-09-11T09:16:18.322Z,3.10
2017-09-11T09:18:45.787Z,2.83
2017-09-11T09:21:13.234Z,2.92
2017-09-11T09:23:40.683Z,3.10
2017-09-11T09:26:08.151Z,3.27
2017-09-11T09:28:35.619Z,3.00
2017-09-11T09:31:03.052Z,3.25
2017-09-11T09:33:30.513Z,3.30
2017-09-11T09:35:57.946Z,3.30
2017-09-11T09:38:25.430Z,3.10
2017-09-11T09:40:52.890Z,2.80
2017-09-11T09:43:20.315Z,3.50
2017-09-11T09:45:47.766Z,3.40
2017-09-11T09:48:15.352Z,2.95
2017-09-11T09:50:42.892Z,3.30
2017-09-11T09:53:10.347Z,3.33
2017-09-11T09:55:37.849Z,2.80
2017-09-11T09:58:05.408Z,2.90
2017-09-11T10:00:32.870Z,2.80
2017-09-11T10:03:01.069Z,2.87
2017-09-11T10:05:28.635Z,2.97
2017-09-11T10:07:56.829Z,3.17
2017-09-11T10:10:24.290Z,3.20
2017-09-11T10:12:51.730Z,3.17
2017-09-11T10:15:19.234Z,2.72
2017-09-11T10:17:46.799Z,2.40
2017-09-11T10:20:14.276Z,3.30
2017-09-11T10:22:42.507Z,3.70
2017-09-11T10:25:09.982Z,2.87
2017-09-11T10:27:37.422Z,3.60
2017-09-11T10:30:04.890Z,5.70
2017-09-11T10:32:32.439Z,4.70
2017-09-11T10:34:59.871Z,4.87
2017-09-11T10:37:27.387Z,2.80
2017-09-11T10:39:54.931Z,2.30
2017-09-11T10:42:22.459Z,2.35
2017-09-11T10:44:49.953Z,2.47
2017-09-11T10:47:17.438Z,3.03
2017-09-11T10:49:45.701Z,3.20
2017-09-11T10:52:13.158Z,3.12
2017-09-11T10:54:40.699Z,2.80
2017-09-11T10:57:08.269Z,2.50
2017-09-11T10:59:35.710Z,2.67
2017-09-11T11:02:03.180Z,3.20
2017-09-11T11:04:30.630Z,3.40
2017-09-11T11:06:58.068Z,2.90
2017-09-11T11:09:25.518Z,2.92
2017-09-11T11:11:52.937Z,3.00
2017-09-11T11:14:20.395Z,2.62
2017-09-11T11:16:48.652Z,2.70
2017-09-11T11:19:16.128Z,2.90
2017-09-11T11:21:43.549Z,2.60
2017-09-11T11:24:11.051Z,3.53
2017-09-11T11:26:38.502Z,3.00
2017-09-11T11:29:06.100Z,3.65
2017-09-11T11:31:33.643Z,3.00
2017-09-11T11:34:01.147Z,3.25
2017-09-11T11:36:28.603Z,3.70
2017-09-11T11:38:56.110Z,3.10
2017-09-11T11:41:24.420Z,3.40
2017-09-11T11:44:24.518Z,3.87
2017-09-11T11:46:52.006Z,4.60
2017-09-11T11:49:19.579Z,3.60
2017-09-11T11:51:47.159Z,3.67
2017-09-11T11:54:15.350Z,3.40
2017-09-11T11:56:42.795Z,3.30
2017-09-11T11:59:11.011Z,3.20
2017-09-11T12:01:38.462Z,2.70
2017-09-11T12:04:05.932Z,2.50
2017-09-11T12:06:33.392Z,2.60
2017-09-11T12:09:00.875Z,2.80
2017-09-11T12:11:28.323Z,2.75
2017-09-11T12:13:55.773Z,2.40
2017-09-11T12:16:23.258Z,2.30
2017-09-11T12:18:50.788Z,3.00
2017-09-11T12:21:18.300Z,2.60
2017-09-11T12:23:45.962Z,2.40
2017-09-11T12:26:14.190Z,3.50
2017-09-11T12:28:41.633Z,3.03
2017-09-11T12:31:09.126Z,3.30
2017-09-11T12:33:36.575Z,3.95
2017-09-11T12:36:04.047Z,3.07
2017-09-11T12:38:32.267Z,3.00
2017-09-11T12:40:59.709Z,3.00
2017-09-11T12:43:27.177Z,2.80
2017-09-11T12:45:54.703Z,2.70
2017-09-11T12:48:22.958Z,3.00
2017-09-11T12:50:51.147Z,2.62
2017-09-11T12:53:19.375Z,2.95
2017-09-11T12:55:46.801Z,3.37
2017-09-11T12:58:14.239Z,2.83
2017-09-11T13:00:42.601Z,3.65
2017-09-11T13:03:10.111Z,3.17
2017-09-11T13:05:37.531Z,3.37
2017-09-11T13:08:05.739Z,2.78
2017-09-11T13:10:33.260Z,2.70
2017-09-11T13:13:00.730Z,3.10
2017-09-11T13:15:28.209Z,2.85
2017-09-11T13:17:56.411Z,3.30
2017-09-11T13:20:23.856Z,3.10
2017-09-11T13:22:51.350Z,3.40
2017-09-11T13:25:18.791Z,3.60
2017-09-11T13:27:46.223Z,3.17
2017-09-11T13:30:13.692Z,2.70
2017-09-11T13:32:41.131Z,2.80
2017-09-11T13:35:08.599Z,2.47
2017-09-11T13:37:36.040Z,2.67
2017-09-11T13:40:03.491Z,2.60
2017-09-11T13:42:30.946Z,2.80
2017-09-11T13:44:58.423Z,3.00
2017-09-11T13:47:26.666Z,3.17
2017-09-11T13:49:54.111Z,2.72
2017-09-11T13:52:21.560Z,2.60
2017-09-11T13:54:49.023Z,3.10
2017-09-11T13:57:16.468Z,3.00
2017-09-11T13:59:44.018Z,3.60
2017-09-11T14:02:11.567Z,3.03
2017-09-11T14:04:39.024Z,3.25
2017-09-11T14:07:06.527Z,3.50
2017-09-11T14:09:34.730Z,3.67
2017-09-11T14:12:02.247Z,2.70
2017-09-11T14:14:30.606Z,3.00
2017-09-11T14:16:58.067Z,2.90
2017-09-11T14:19:25.607Z,3.20
2017-09-11T14:21:53.166Z,3.12
2017-09-11T14:24:20.618Z,3.90
2017-09-11T14:26:48.071Z,3.55
2017-09-11T14:29:15.516Z,3.23
2017-09-11T14:31:42.945Z,3.70
2017-09-11T14:34:10.435Z,3.80
2017-09-11T14:36:37.872Z,3.67
2017-09-11T14:39:05.542Z,3.85
2017-09-11T14:41:33.010Z,3.67
2017-09-11T14:44:00.463Z,3.80
2017-09-11T14:46:27.908Z,3.65
2017-09-11T14:48:55.369Z,3.20
2017-09-11T14:51:22.822Z,3.30
2017-09-11T14:53:50.291Z,3.67
2017-09-11T14:56:17.738Z,3.90
2017-09-11T14:58:45.171Z,3.67
2017-09-11T15:01:12.620Z,3.40
2017-09-11T15:03:40.163Z,3.87
2017-09-11T15:06:08.362Z,3.35
2017-09-11T15:08:35.863Z,3.55
2017-09-11T15:11:03.322Z,3.33
2017-09-11T15:13:30.801Z,3.70
2017-09-11T15:15:59.021Z,3.35
2017-09-11T15:18:26.543Z,2.53
2017-09-11T15:20:54.795Z,2.20
2017-09-11T15:23:22.239Z,2.30
2017-09-11T15:25:49.707Z,2.37
2017-09-11T15:28:18.667Z,2.50
2017-09-11T15:30:46.215Z,2.40
2017-09-11T15:33:13.703Z,2.05
2017-09-11T15:35:41.148Z,2.40
2017-09-11T15:38:08.584Z,2.70
2017-09-11T15:40:36.071Z,3.20
2017-09-11T15:43:03.515Z,3.72
2017-09-11T15:45:30.956Z,3.33
2017-09-11T15:47:58.451Z,3.22
2017-09-11T15:50:25.894Z,2.85
2017-09-11T15:52:53.330Z,3.60
2017-09-11T15:55:20.812Z,2.95
2017-09-11T15:57:48.251Z,3.00
2017-09-11T16:00:15.775Z,3.03
2017-09-11T16:02:43.983Z,2.97
2017-09-11T16:05:11.599Z,3.67
2017-09-11T16:07:39.815Z,3.80
2017-09-11T16:10:07.295Z,4.00
2017-09-11T16:12:34.756Z,4.60
2017-09-11T16:15:02.253Z,3.10
2017-09-11T16:17:29.738Z,3.00
2017-09-11T16:19:57.298Z,4.10
2017-09-11T16:22:24.791Z,4.00
2017-09-11T16:24:52.233Z,4.60
2017-09-11T16:27:19.697Z,5.85
2017-09-11T16:29:47.203Z,5.65
2017-09-11T16:32:14.622Z,4.90
2017-09-11T16:34:42.202Z,5.78
2017-09-11T16:37:10.470Z,5.20
2017-09-11T16:39:37.934Z,4.90
2017-09-11T16:42:05.421Z,3.30
2017-09-11T16:44:33.756Z,4.62
2017-09-11T16:47:01.224Z,2.62
2017-09-11T16:49:28.798Z,2.78
2017-09-11T16:51:56.247Z,2.97
2017-09-11T16:54:24.475Z,4.40
2017-09-11T16:56:51.944Z,3.90
2017-09-11T16:59:19.421Z,3.50
2017-09-11T17:01:46.879Z,2.62
2017-09-11T17:04:14.334Z,3.60
2017-09-11T17:06:41.918Z,3.03
2017-09-11T17:09:09.456Z,3.33
2017-09-11T17:11:36.887Z,3.10
2017-09-11T17:14:04.354Z,3.08
2017-09-11T17:16:31.784Z,3.07
2017-09-11T17:18:59.284Z,4.18
2017-09-11T17:21:26.908Z,5.20
2017-09-11T17:23:54.375Z,4.40
2017-09-11T17:26:21.818Z,4.45
2017-09-11T17:28:49.254Z,3.77
2017-09-11T17:31:16.778Z,3.72
2017-09-11T17:33:44.362Z,6.22
2017-09-11T17:36:12.115Z,5.10
2017-09-11T17:38:40.356Z,4.37
2017-09-11T17:41:08.803Z,4.03
2017-09-11T17:43:36.239Z,4.70
2017-09-11T17:46:03.699Z,4.32
2017-09-11T17:48:31.192Z,2.90
2017-09-11T17:50:58.652Z,2.85
2017-09-11T17:53:26.843Z,3.12
2017-09-11T17:55:54.354Z,3.70
2017-09-11T17:58:21.914Z,6.20
2017-09-11T18:00:49.366Z,6.00
2017-09-11T18:03:16.904Z,6.10
2017-09-11T18:05:44.380Z,6.65
2017-09-11T18:08:11.827Z,7.13
2017-09-11T18:10:39.287Z,5.80
2017-09-11T18:13:06.786Z,7.40
2017-09-11T18:15:35.035Z,6.85
2017-09-11T18:18:02.499Z,7.05
2017-09-11T18:20:30.867Z,7.50
2017-09-11T18:22:58.419Z,5.20
2017-09-11T18:25:25.935Z,3.80
2017-09-11T18:27:53.436Z,3.67
2017-09-11T18:30:20.955Z,4.00
2017-09-11T18:32:48.539Z,4.90
2017-09-11T18:35:16.110Z,6.00
2017-09-11T18:37:43.642Z,4.30
2017-09-11T18:40:11.161Z,3.78
2017-09-11T18:42:38.842Z,4.15
2017-09-11T18:45:06.297Z,3.27
2017-09-11T18:47:33.807Z,4.20
2017-09-11T18:50:01.313Z,3.80
2017-09-11T18:52:28.813Z,4.55
2017-09-11T18:54:56.257Z,5.28
2017-09-11T18:57:23.703Z,4.70
2017-09-11T18:59:51.182Z,3.80
2017-09-11T19:02:18.707Z,3.25
2017-09-11T19:04:46.286Z,4.32
2017-09-11T19:07:13.719Z,3.80
2017-09-11T19:09:41.201Z,3.40
2017-09-11T19:12:08.737Z,3.50
2017-09-11T19:14:36.268Z,3.90
2017-09-11T19:17:03.843Z,4.55
2017-09-11T19:19:31.321Z,3.50
2017-09-11T19:21:58.815Z,2.80
2017-09-11T19:24:27.070Z,2.62
2017-09-11T19:26:54.526Z,2.90
2017-09-11T19:29:22.746Z,3.00
2017-09-11T19:31:50.336Z,2.70
2017-09-11T19:34:17.906Z,2.55
2017-09-11T19:36:45.443Z,2.53
2017-09-11T19:39:12.914Z,2.70
2017-09-11T19:41:40.448Z,3.20
2017-09-11T19:44:08.879Z,3.28
2017-09-11T19:46:37.100Z,3.40
2017-09-11T19:49:04.576Z,2.58
2017-09-11T19:51:32.040Z,3.00
2017-09-11T19:53:59.510Z,2.22
2017-09-11T19:56:27.047Z,2.92
2017-09-11T19:58:54.499Z,2.65
2017-09-11T20:01:21.944Z,2.70
2017-09-11T20:03:49.368Z,3.70
2017-09-11T20:06:16.872Z,3.33
2017-09-11T20:08:44.308Z,2.90
2017-09-11T20:11:11.756Z,3.00
2017-09-11T20:13:40.064Z,2.80
2017-09-11T20:16:07.508Z,2.80
2017-09-11T20:18:34.959Z,3.70
2017-09-11T20:21:02.443Z,3.33
2017-09-11T20:23:29.978Z,2.40
2017-09-11T20:25:57.439Z,3.05
2017-09-11T20:28:24.932Z,2.80
2017-09-11T20:30:52.503Z,3.20
2017-09-11T20:33:20.751Z,3.33
2017-09-11T20:35:48.179Z,3.12
2017-09-11T20:38:15.719Z,2.80
2017-09-11T20:40:43.207Z,2.60
2017-09-11T20:43:10.663Z,2.87
2017-09-11T20:45:38.111Z,2.62
2017-09-11T20:48:05.558Z,3.53
2017-09-11T20:50:33.021Z,2.80
2017-09-11T20:53:00.506Z,2.83
2017-09-11T20:55:27.965Z,2.83
2017-09-11T20:57:55.380Z,2.30
2017-09-11T21:00:22.826Z,2.60
2017-09-11T21:02:50.286Z,2.70
2017-09-11T21:05:17.786Z,2.75
2017-09-11T21:07:45.337Z,2.50
2017-09-11T21:10:12.791Z,2.67
2017-09-11T21:12:40.223Z,4.40
2017-09-11T21:15:07.670Z,3.00
2017-09-11T21:17:35.132Z,2.50
2017-09-11T21:20:02.587Z,2.80
2017-09-11T21:22:30.026Z,2.83
2017-09-11T21:24:57.459Z,3.00
2017-09-11T21:27:25.675Z,3.40
2017-09-11T21:29:53.133Z,2.90
2017-09-11T21:32:20.618Z,2.42
2017-09-11T21:34:48.050Z,2.90
2017-09-11T21:37:15.492Z,3.10
2017-09-11T21:39:43.066Z,2.80
2017-09-11T21:42:10.527Z,2.72
2017-09-11T21:44:37.961Z,2.80
2017-09-11T21:47:05.565Z,2.70
2017-09-11T21:49:33.007Z,3.15
2017-09-11T21:52:00.478Z,2.80
2017-09-11T21:54:28.007Z,3.00
2017-09-11T21:56:55.956Z,2.80
2017-09-11T21:59:23.463Z,2.50
2017-09-11T22:01:51.679Z,2.70
2017-09-11T22:04:19.171Z,2.93
2017-09-11T22:06:46.595Z,2.80
2017-09-11T22:09:14.066Z,2.50
2017-09-11T22:11:41.487Z,2.67
2017-09-11T22:14:09.697Z,3.00
2017-09-11T22:16:37.132Z,2.60
2017-09-11T22:19:04.620Z,2.70
2017-09-11T22:21:32.083Z,3.55
2017-09-11T22:23:59.512Z,3.10
2017-09-11T22:26:26.945Z,3.08
2017-09-11T22:28:54.384Z,2.70
2017-09-11T22:31:22.579Z,3.07
2017-09-11T22:33:50.034Z,2.80
2017-09-11T22:36:17.558Z,2.47
2017-09-11T22:38:46.632Z,2.92
2017-09-11T22:41:14.090Z,2.80
2017-09-11T22:43:41.539Z,2.70
2017-09-11T22:46:08.971Z,2.85
2017-09-11T22:48:36.415Z,2.70
2017-09-11T22:51:03.868Z,2.70
2017-09-11T22:53:32.059Z,2.83
2017-09-11T22:55:59.502Z,2.95
2017-09-11T22:58:26.939Z,3.22
2017-09-11T23:00:55.173Z,2.90
2017-09-11T23:03:22.619Z,2.60
2017-09-11T23:05:50.102Z,3.03
2017-09-11T23:08:17.530Z,3.70
2017-09-11T23:10:45.004Z,2.50
2017-09-11T23:13:12.426Z,2.80
2017-09-11T23:15:39.887Z,2.93
2017-09-11T23:18:08.839Z,2.90
2017-09-11T23:20:36.264Z,2.90
2017-09-11T23:23:04.480Z,2.85
2017-09-11T23:25:31.914Z,3.00
2017-09-11T23:27:59.370Z,2.90
2017-09-11T23:30:26.807Z,2.90
2017-09-11T23:32:54.419Z,3.00
2017-09-11T23:35:21.881Z,3.00
2017-09-11T23:37:49.337Z,3.00
2017-09-11T23:40:16.793Z,3.15
2017-09-11T23:42:44.247Z,3.42
2017-09-11T23:45:11.800Z,3.17
2017-09-11T23:47:39.298Z,3.12
2017-09-11T23:50:06.754Z,3.33
2017-09-11T23:52:34.219Z,3.40
2017-09-11T23:55:01.665Z,4.40
2017-09-11T23:57:29.230Z,3.25
2017-09-11T23:59:56.662Z,3.30
